Furlong, Pennsylvania
Current Conditions -  °F | °C
As of 5:54 PM on Wednesday 17 Dec 2014 (Local Time) from KDYL Reporting Station
Broken Clouds Broken Clouds  
Wind Chill: 36°   Ceiling: 5000
Heat Index: 41°   Visibility: 10mi
Dew Point: 30°   Wind: 7mph
Humidity: 65%   Direction: 280°W
Pressure: 29.92"   Gusts: 17mph
Location:  40.3°N, 75.07°W
Report Text: KDYL 172254Z AUTO 28006G15KT 10SM BKN050 05/M01 A2992 RMK AO2 SLP136 T00501011
Loading
Personal Weather Stations






























Interactive Weather Map New forecast layout! Learn more

10-Day Weather Forecast

Advertisements
Track Severe Weather on mobile